createdAt,value
2018-01-18T00:01:15.262Z,94.25
2018-01-18T00:03:42.912Z,93.49
2018-01-18T00:06:10.480Z,93.94
2018-01-18T00:08:38.133Z,93.40
2018-01-18T00:11:05.673Z,93.01
2018-01-18T00:13:33.245Z,92.81
2018-01-18T00:16:00.797Z,93.51
2018-01-18T00:18:28.368Z,93.88
2018-01-18T00:20:55.955Z,93.32
2018-01-18T00:23:23.533Z,92.79
2018-01-18T00:25:51.068Z,93.80
2018-01-18T00:28:18.603Z,93.47
2018-01-18T00:30:46.117Z,93.50
2018-01-18T00:33:13.672Z,93.73
2018-01-18T00:35:41.246Z,93.43
2018-01-18T00:38:08.756Z,93.64
2018-01-18T00:40:36.320Z,93.36
2018-01-18T00:43:03.878Z,93.13
2018-01-18T00:45:31.383Z,93.35
2018-01-18T00:47:59.260Z,94.01
2018-01-18T00:50:26.771Z,92.76
2018-01-18T00:52:54.281Z,93.21
2018-01-18T00:55:21.819Z,93.64
2018-01-18T00:57:49.332Z,93.71
2018-01-18T01:00:16.897Z,94.09
2018-01-18T01:02:44.402Z,94.13
2018-01-18T01:05:12.855Z,94.00
2018-01-18T01:07:40.378Z,93.88
2018-01-18T01:10:07.968Z,93.77
2018-01-18T01:12:35.562Z,94.07
2018-01-18T01:15:03.076Z,93.92
2018-01-18T01:17:30.673Z,94.15
2018-01-18T01:19:58.281Z,94.63
2018-01-18T01:22:25.829Z,94.89
2018-01-18T01:24:53.397Z,95.28
2018-01-18T01:27:21.003Z,94.95
2018-01-18T01:29:48.900Z,94.41
2018-01-18T01:32:16.413Z,94.52
2018-01-18T01:34:43.984Z,94.52
2018-01-18T01:37:11.544Z,94.89
2018-01-18T01:39:39.087Z,94.20
2018-01-18T01:42:06.680Z,95.12
2018-01-18T01:44:34.220Z,94.52
2018-01-18T01:47:01.759Z,94.95
2018-01-18T01:49:29.329Z,93.94
2018-01-18T01:51:56.884Z,94.18
2018-01-18T01:54:24.741Z,94.44
2018-01-18T01:56:52.277Z,94.41
2018-01-18T01:59:19.823Z,94.38
2018-01-18T02:01:47.397Z,94.58
2018-01-18T02:04:14.965Z,94.54
2018-01-18T02:06:42.529Z,94.55
2018-01-18T02:09:10.045Z,94.07
2018-01-18T02:11:37.626Z,93.97
2018-01-18T02:14:05.174Z,94.56
2018-01-18T02:16:32.718Z,94.41
2018-01-18T02:19:00.282Z,94.20
2018-01-18T02:21:27.868Z,93.81
2018-01-18T02:23:55.413Z,93.21
2018-01-18T02:26:22.922Z,93.43
2018-01-18T02:28:50.476Z,93.09
2018-01-18T02:31:18.021Z,93.74
2018-01-18T02:33:45.611Z,93.85
2018-01-18T02:36:13.120Z,93.84
2018-01-18T02:38:40.703Z,93.80
2018-01-18T02:41:08.283Z,93.86
2018-01-18T02:43:35.853Z,93.23
2018-01-18T02:46:03.489Z,93.76
2018-01-18T02:48:31.045Z,94.21
2018-01-18T02:50:58.582Z,93.93
2018-01-18T02:53:26.139Z,94.28
2018-01-18T02:55:53.684Z,94.04
2018-01-18T02:58:21.224Z,94.23
2018-01-18T03:00:48.789Z,93.90
2018-01-18T03:03:16.328Z,93.81
2018-01-18T03:05:43.996Z,94.27
2018-01-18T03:08:11.704Z,93.92
2018-01-18T03:10:39.253Z,93.92
2018-01-18T03:13:06.759Z,94.05
2018-01-18T03:15:34.315Z,93.85
2018-01-18T03:18:01.856Z,94.24
2018-01-18T03:20:29.376Z,93.84
2018-01-18T03:22:57.297Z,94.01
2018-01-18T03:25:24.845Z,94.66
2018-01-18T03:27:52.347Z,94.23
2018-01-18T03:30:19.933Z,94.18
2018-01-18T03:32:47.460Z,94.30
2018-01-18T03:35:14.992Z,94.10
2018-01-18T03:37:42.524Z,94.41
2018-01-18T03:40:10.076Z,94.25
2018-01-18T03:42:37.588Z,94.30
2018-01-18T03:45:05.160Z,94.78
2018-01-18T03:47:32.688Z,95.01
2018-01-18T03:50:00.204Z,94.96
2018-01-18T03:52:27.773Z,95.98
2018-01-18T03:54:55.332Z,96.50
2018-01-18T03:57:22.863Z,96.23
2018-01-18T03:59:50.384Z,97.09
2018-01-18T04:02:17.952Z,96.89
2018-01-18T04:04:45.506Z,97.72
2018-01-18T04:07:13.035Z,98.31
2018-01-18T04:09:40.627Z,98.36
2018-01-18T04:12:08.168Z,99.15
2018-01-18T04:14:35.704Z,99.13
2018-01-18T04:17:03.284Z,99.65
2018-01-18T04:19:30.802Z,99.39
2018-01-18T04:21:58.346Z,98.89
2018-01-18T04:24:25.860Z,99.28
2018-01-18T04:26:53.715Z,99.59
2018-01-18T04:29:21.267Z,100.00
2018-01-18T04:31:48.820Z,100.00
2018-01-18T04:34:16.396Z,100.00
2018-01-18T04:36:43.952Z,100.00
2018-01-18T04:39:11.524Z,100.00
2018-01-18T04:41:39.064Z,100.00
2018-01-18T04:44:06.984Z,100.00
2018-01-18T04:46:34.529Z,100.00
2018-01-18T04:49:02.044Z,100.00
2018-01-18T04:51:29.609Z,100.00
2018-01-18T04:53:57.134Z,100.00
2018-01-18T04:56:24.713Z,100.00
2018-01-18T04:58:52.264Z,100.00
2018-01-18T05:01:19.801Z,100.00
2018-01-18T05:03:47.360Z,100.00
2018-01-18T05:06:14.934Z,100.00
2018-01-18T05:08:42.508Z,100.00
2018-01-18T05:11:10.054Z,100.00
2018-01-18T05:13:37.593Z,100.00
2018-01-18T05:16:05.100Z,100.00
2018-01-18T05:18:32.644Z,100.00
2018-01-18T05:21:00.204Z,100.00
2018-01-18T05:23:27.740Z,100.00
2018-01-18T05:25:55.268Z,100.00
2018-01-18T05:28:22.950Z,100.00
2018-01-18T05:30:50.499Z,100.00
2018-01-18T05:33:18.075Z,100.00
2018-01-18T05:35:45.583Z,100.00
2018-01-18T05:38:13.101Z,100.00
2018-01-18T05:40:40.669Z,100.00
2018-01-18T05:43:08.183Z,100.00
2018-01-18T05:45:35.757Z,100.00
2018-01-18T05:48:03.281Z,100.00
2018-01-18T05:50:30.844Z,100.00
2018-01-18T05:52:58.477Z,100.00
2018-01-18T05:55:26.056Z,100.00
2018-01-18T05:57:53.572Z,100.00
2018-01-18T06:00:21.088Z,100.00
2018-01-18T06:02:48.653Z,100.00
2018-01-18T06:05:16.222Z,100.00
2018-01-18T06:07:43.812Z,100.00
2018-01-18T06:10:11.408Z,100.00
2018-01-18T06:12:38.916Z,100.00
2018-01-18T06:15:06.583Z,100.00
2018-01-18T06:17:34.156Z,100.00
2018-01-18T06:20:01.710Z,100.00
2018-01-18T06:22:29.608Z,100.00
2018-01-18T06:24:57.234Z,100.00
2018-01-18T06:27:24.774Z,100.00
2018-01-18T06:29:52.369Z,100.00
2018-01-18T06:32:19.908Z,100.00
2018-01-18T06:34:47.533Z,100.00
2018-01-18T06:37:15.072Z,100.00
2018-01-18T06:39:42.612Z,100.00
2018-01-18T06:42:10.187Z,100.00
2018-01-18T06:44:37.714Z,100.00
2018-01-18T06:47:05.272Z,100.00
2018-01-18T06:49:32.779Z,100.00
2018-01-18T06:52:00.298Z,100.00
2018-01-18T06:54:27.823Z,100.00
2018-01-18T06:56:55.477Z,100.00
2018-01-18T06:59:23.072Z,100.00
2018-01-18T07:01:50.628Z,100.00
2018-01-18T07:04:18.139Z,100.00
2018-01-18T07:06:45.672Z,100.00
2018-01-18T07:09:13.193Z,100.00
2018-01-18T07:11:40.741Z,100.00
2018-01-18T07:14:08.336Z,100.00
2018-01-18T07:16:35.878Z,100.00
2018-01-18T07:19:03.434Z,100.00
2018-01-18T07:21:31.079Z,100.00
2018-01-18T07:23:58.630Z,100.00
2018-01-18T07:26:26.173Z,100.00
2018-01-18T07:28:53.748Z,100.00
2018-01-18T07:31:21.308Z,100.00
2018-01-18T07:33:48.849Z,100.00
2018-01-18T07:36:16.417Z,100.00
2018-01-18T07:38:43.964Z,100.00
2018-01-18T07:41:11.536Z,100.00
2018-01-18T07:43:39.160Z,100.00
2018-01-18T07:46:06.851Z,100.00
2018-01-18T07:48:34.372Z,100.00
2018-01-18T07:51:01.892Z,100.00
2018-01-18T07:53:29.427Z,100.00
2018-01-18T07:55:56.932Z,99.50
2018-01-18T07:58:24.603Z,99.79
2018-01-18T08:00:52.140Z,99.28
2018-01-18T08:03:25.289Z,98.27
2018-01-18T08:05:52.892Z,97.64
2018-01-18T08:08:20.473Z,98.44
2018-01-18T08:10:47.989Z,97.78
2018-01-18T08:13:15.871Z,96.60
2018-01-18T08:15:43.386Z,96.21
2018-01-18T08:18:11.825Z,95.67
2018-01-18T08:20:39.379Z,96.13
2018-01-18T08:23:06.917Z,96.48
2018-01-18T08:28:16.357Z,94.80
2018-01-18T08:30:43.929Z,95.58
2018-01-18T08:33:11.439Z,94.99
2018-01-18T08:35:39.010Z,95.23
2018-01-18T08:38:06.526Z,94.61
2018-01-18T08:40:34.070Z,93.98
2018-01-18T08:43:01.665Z,92.51
2018-01-18T08:45:29.237Z,88.18
2018-01-18T08:47:56.784Z,87.91
2018-01-18T08:50:24.409Z,89.50
2018-01-18T08:52:52.003Z,89.77
2018-01-18T08:55:19.525Z,90.93
2018-01-18T08:57:47.109Z,90.84
2018-01-18T09:00:14.664Z,92.67
2018-01-18T09:02:42.201Z,94.38
2018-01-18T09:05:09.873Z,96.18
2018-01-18T09:07:37.456Z,95.94
2018-01-18T09:10:04.974Z,93.11
2018-01-18T09:12:32.512Z,93.37
2018-01-18T09:15:00.408Z,91.44
2018-01-18T09:17:28.138Z,90.09
2018-01-18T09:19:55.722Z,89.79
2018-01-18T09:22:23.353Z,89.85
2018-01-18T09:24:50.892Z,86.11
2018-01-18T09:27:18.427Z,83.89
2018-01-18T09:29:45.961Z,82.78
2018-01-18T09:32:13.683Z,83.32
2018-01-18T09:34:41.364Z,82.15
2018-01-18T09:37:08.906Z,82.42
2018-01-18T09:39:36.484Z,81.79
2018-01-18T09:42:04.021Z,82.16
2018-01-18T09:44:31.596Z,82.59
2018-01-18T09:46:59.128Z,84.39
2018-01-18T09:49:26.702Z,83.96
2018-01-18T09:51:54.346Z,83.35
2018-01-18T09:54:21.949Z,84.28
2018-01-18T09:56:49.521Z,84.66
2018-01-18T09:59:17.380Z,85.51
2018-01-18T10:01:44.977Z,85.92
2018-01-18T10:04:12.473Z,86.35
2018-01-18T10:06:40.098Z,88.70
2018-01-18T10:09:07.621Z,89.60
2018-01-18T10:11:35.119Z,90.16
2018-01-18T10:14:02.677Z,90.84
2018-01-18T10:16:30.220Z,91.46
2018-01-18T10:18:57.762Z,91.81
2018-01-18T10:21:25.325Z,92.48
2018-01-18T10:23:52.842Z,92.68
2018-01-18T10:26:20.373Z,93.20
2018-01-18T10:28:47.920Z,95.30
2018-01-18T10:31:15.480Z,96.16
2018-01-18T10:33:43.080Z,97.89
2018-01-18T10:36:10.712Z,99.06
2018-01-18T10:38:38.281Z,99.78
2018-01-18T10:41:05.826Z,100.00
2018-01-18T10:43:33.396Z,100.00
2018-01-18T10:46:00.936Z,100.00
2018-01-18T10:48:28.480Z,100.00
2018-01-18T10:50:56.035Z,100.00
2018-01-18T10:53:23.598Z,100.00
2018-01-18T10:55:51.116Z,100.00
2018-01-18T10:58:18.688Z,100.00
2018-01-18T11:00:46.288Z,100.00
2018-01-18T11:03:13.801Z,100.00
2018-01-18T11:05:41.331Z,100.00
2018-01-18T11:08:08.866Z,99.39
2018-01-18T11:10:36.418Z,98.91
2018-01-18T11:13:03.985Z,97.63
2018-01-18T11:15:31.497Z,96.56
2018-01-18T11:17:59.053Z,96.19
2018-01-18T11:20:26.664Z,95.75
2018-01-18T11:22:54.613Z,94.96
2018-01-18T11:25:22.134Z,93.37
2018-01-18T11:27:49.720Z,92.56
2018-01-18T11:30:17.256Z,92.27
2018-01-18T11:32:44.959Z,90.91
2018-01-18T11:35:12.472Z,90.14
2018-01-18T11:37:40.025Z,90.06
2018-01-18T11:40:07.563Z,88.52
2018-01-18T11:42:35.161Z,89.69
2018-01-18T11:45:02.728Z,89.95
2018-01-18T11:47:30.241Z,89.93
2018-01-18T11:49:57.774Z,89.10
2018-01-18T11:52:25.340Z,89.14
2018-01-18T11:54:52.883Z,89.75
2018-01-18T11:57:20.399Z,88.50
2018-01-18T11:59:47.937Z,90.10
2018-01-18T12:02:15.444Z,91.85
2018-01-18T12:04:43.026Z,93.27
2018-01-18T12:07:10.588Z,94.28
2018-01-18T12:09:38.234Z,93.92
2018-01-18T12:12:06.236Z,94.49
2018-01-18T12:14:33.763Z,94.73
2018-01-18T12:17:01.286Z,94.25
2018-01-18T12:19:28.844Z,94.58
2018-01-18T12:21:56.386Z,94.33
2018-01-18T12:24:24.001Z,94.37
2018-01-18T12:26:51.536Z,94.52
2018-01-18T12:29:19.138Z,94.33
2018-01-18T12:31:46.985Z,93.55
2018-01-18T12:34:14.487Z,93.55
2018-01-18T12:36:42.026Z,92.27
2018-01-18T12:39:09.575Z,91.32
2018-01-18T12:41:37.080Z,90.79
2018-01-18T12:44:05.090Z,91.88
2018-01-18T12:46:32.611Z,91.33
2018-01-18T12:49:00.234Z,90.37
2018-01-18T12:51:27.833Z,91.58
2018-01-18T12:53:55.352Z,92.44
2018-01-18T12:56:22.881Z,93.08
2018-01-18T12:58:50.472Z,93.67
2018-01-18T13:01:18.008Z,94.13
2018-01-18T13:03:45.537Z,94.76
2018-01-18T13:06:13.124Z,93.44
2018-01-18T13:08:40.718Z,91.80
2018-01-18T13:11:08.256Z,91.39
2018-01-18T13:13:35.849Z,91.78
2018-01-18T13:16:03.784Z,90.92
2018-01-18T13:18:31.424Z,90.94
2018-01-18T13:20:58.950Z,91.66
2018-01-18T13:23:26.513Z,91.36
2018-01-18T13:25:54.389Z,91.47
2018-01-18T13:28:21.926Z,90.90
2018-01-18T13:30:49.469Z,89.80
2018-01-18T13:33:17.014Z,89.08
2018-01-18T13:35:44.596Z,88.95
2018-01-18T13:38:12.219Z,88.87
2018-01-18T13:40:39.732Z,88.28
2018-01-18T13:43:07.273Z,87.74
2018-01-18T13:45:34.810Z,87.75
2018-01-18T13:48:02.319Z,87.84
2018-01-18T13:50:29.886Z,87.99
2018-01-18T13:52:57.421Z,88.61
2018-01-18T13:55:24.973Z,89.39
2018-01-18T13:57:52.556Z,89.81
2018-01-18T14:00:20.083Z,90.03
2018-01-18T14:02:47.624Z,90.75
2018-01-18T14:05:15.188Z,90.34
2018-01-18T14:07:42.701Z,91.10
2018-01-18T14:10:10.241Z,89.32
2018-01-18T14:12:38.186Z,90.04
2018-01-18T14:15:05.733Z,90.02
2018-01-18T14:17:33.280Z,90.11
2018-01-18T14:20:00.825Z,91.51
2018-01-18T14:22:28.390Z,92.51
2018-01-18T14:24:55.907Z,92.94
2018-01-18T14:27:23.440Z,93.29
2018-01-18T14:29:51.009Z,93.10
2018-01-18T14:32:18.549Z,92.43
2018-01-18T14:34:46.084Z,91.94
2018-01-18T14:37:13.583Z,90.65
2018-01-18T14:39:41.113Z,90.20
2018-01-18T14:42:08.684Z,90.36
2018-01-18T14:44:36.193Z,91.40
2018-01-18T14:47:03.859Z,91.42
2018-01-18T14:49:31.376Z,91.79
2018-01-18T14:51:58.905Z,92.03
2018-01-18T14:54:26.464Z,91.82
2018-01-18T14:56:54.057Z,91.48
2018-01-18T14:59:21.566Z,91.29
2018-01-18T15:01:49.282Z,91.45
2018-01-18T15:04:16.820Z,91.93
2018-01-18T15:06:44.414Z,92.31
2018-01-18T15:09:12.119Z,92.36
2018-01-18T15:11:39.773Z,92.59
2018-01-18T15:14:07.304Z,92.95
2018-01-18T15:16:34.930Z,92.59
2018-01-18T15:19:02.829Z,92.84
2018-01-18T15:21:30.342Z,92.82
2018-01-18T15:23:57.981Z,93.07
2018-01-18T15:26:25.503Z,93.22
2018-01-18T15:28:53.060Z,93.18
2018-01-18T15:31:20.597Z,93.00
2018-01-18T15:33:48.107Z,92.88
2018-01-18T15:36:15.659Z,93.27
2018-01-18T15:38:43.170Z,93.38
2018-01-18T15:41:10.732Z,93.87
2018-01-18T15:43:38.249Z,93.91
2018-01-18T15:46:05.805Z,93.83
2018-01-18T15:48:33.395Z,93.24
2018-01-18T15:51:00.937Z,93.69
2018-01-18T15:53:28.641Z,93.79
2018-01-18T15:55:56.306Z,94.01
2018-01-18T15:58:23.815Z,93.90
2018-01-18T16:00:51.373Z,94.00
2018-01-18T16:03:18.871Z,94.07
2018-01-18T16:05:46.465Z,94.21
2018-01-18T16:08:14.181Z,94.08
2018-01-18T16:10:41.697Z,94.33
2018-01-18T16:13:09.236Z,94.24
2018-01-18T16:15:36.773Z,94.45
2018-01-18T16:18:04.308Z,94.75
2018-01-18T16:20:31.917Z,94.66
2018-01-18T16:22:59.515Z,94.87
2018-01-18T16:25:27.049Z,95.18
2018-01-18T16:27:54.601Z,95.31
2018-01-18T16:30:22.140Z,95.20
2018-01-18T16:32:49.701Z,95.35
2018-01-18T16:35:17.232Z,95.48
2018-01-18T16:37:44.754Z,95.34
2018-01-18T16:40:12.417Z,95.64
2018-01-18T16:42:39.988Z,95.40
2018-01-18T16:45:07.672Z,95.55
2018-01-18T16:47:35.266Z,95.74
2018-01-18T16:50:02.813Z,95.23
2018-01-18T16:52:30.324Z,95.51
2018-01-18T16:54:57.975Z,95.43
2018-01-18T16:57:25.546Z,95.35
2018-01-18T16:59:53.169Z,95.46
2018-01-18T17:02:20.823Z,95.28
2018-01-18T17:04:48.367Z,95.51
2018-01-18T17:07:15.894Z,95.18
2018-01-18T17:09:43.723Z,95.36
2018-01-18T17:12:11.297Z,95.47
2018-01-18T17:14:38.844Z,95.26
2018-01-18T17:17:06.439Z,95.10
2018-01-18T17:19:33.989Z,95.43
2018-01-18T17:22:01.532Z,95.53
2018-01-18T17:24:29.464Z,95.15
2018-01-18T17:26:57.013Z,95.29
2018-01-18T17:29:24.559Z,94.96
2018-01-18T17:31:52.204Z,95.22
2018-01-18T17:34:19.752Z,95.12
2018-01-18T17:36:47.293Z,94.80
2018-01-18T17:39:14.898Z,95.23
2018-01-18T17:41:42.673Z,95.10
2018-01-18T17:44:10.207Z,95.39
2018-01-18T17:46:38.127Z,95.44
2018-01-18T17:49:06.084Z,95.48
2018-01-18T17:51:33.682Z,95.46
2018-01-18T17:54:01.219Z,95.12
2018-01-18T17:56:28.757Z,95.32
2018-01-18T17:58:56.504Z,94.68
2018-01-18T18:01:24.049Z,95.25
2018-01-18T18:03:51.585Z,95.22
2018-01-18T18:06:19.235Z,95.70
2018-01-18T18:08:46.780Z,95.75
2018-01-18T18:11:14.325Z,95.96
2018-01-18T18:13:41.861Z,95.62
2018-01-18T18:16:09.364Z,95.83
2018-01-18T18:18:36.920Z,96.06
2018-01-18T18:21:04.456Z,96.11
2018-01-18T18:23:32.031Z,96.40
2018-01-18T18:25:59.587Z,96.60
2018-01-18T18:28:27.143Z,96.64
2018-01-18T18:30:54.730Z,97.04
2018-01-18T18:33:22.271Z,97.11
2018-01-18T18:35:50.157Z,97.14
2018-01-18T18:38:17.677Z,97.43
2018-01-18T18:40:45.205Z,97.40
2018-01-18T18:43:12.825Z,97.46
2018-01-18T18:45:40.364Z,97.86
2018-01-18T18:48:07.947Z,97.94
2018-01-18T18:50:35.569Z,98.00
2018-01-18T18:53:03.100Z,98.01
2018-01-18T18:55:30.648Z,98.18
2018-01-18T18:57:58.168Z,98.01
2018-01-18T19:00:25.765Z,99.15
2018-01-18T19:02:54.349Z,99.31
2018-01-18T19:05:22.293Z,98.99
2018-01-18T19:07:49.854Z,99.60
2018-01-18T19:10:17.396Z,99.58
2018-01-18T19:12:45.232Z,99.97
2018-01-18T19:15:12.788Z,100.00
2018-01-18T19:17:40.313Z,100.00
2018-01-18T19:20:07.886Z,100.00
2018-01-18T19:22:35.433Z,100.00
2018-01-18T19:25:03.150Z,100.00
2018-01-18T19:27:30.863Z,100.00
2018-01-18T19:29:58.415Z,100.00
2018-01-18T19:32:25.971Z,100.00
2018-01-18T19:34:53.561Z,100.00
2018-01-18T19:37:21.181Z,100.00
2018-01-18T19:39:48.724Z,100.00
2018-01-18T19:42:16.276Z,100.00
2018-01-18T19:44:43.852Z,100.00
2018-01-18T19:47:11.373Z,100.00
2018-01-18T19:49:38.957Z,100.00
2018-01-18T19:52:06.522Z,100.00
2018-01-18T19:54:34.132Z,100.00
2018-01-18T19:57:01.694Z,100.00
2018-01-18T19:59:29.317Z,100.00
2018-01-18T20:01:56.928Z,100.00
2018-01-18T20:04:24.515Z,100.00
2018-01-18T20:06:52.146Z,100.00
2018-01-18T20:09:19.749Z,100.00
2018-01-18T20:11:47.395Z,100.00
2018-01-18T20:14:14.944Z,100.00
2018-01-18T20:16:42.512Z,100.00
2018-01-18T20:19:10.074Z,100.00
2018-01-18T20:21:37.628Z,100.00
2018-01-18T20:24:05.184Z,100.00
2018-01-18T20:26:32.788Z,100.00
2018-01-18T20:29:00.335Z,100.00
2018-01-18T20:31:27.883Z,100.00
2018-01-18T20:33:55.492Z,100.00
2018-01-18T20:36:23.044Z,100.00
2018-01-18T20:38:50.600Z,100.00
2018-01-18T20:41:18.113Z,100.00
2018-01-18T20:43:45.680Z,100.00
2018-01-18T20:46:13.196Z,100.00
2018-01-18T20:48:40.865Z,100.00
2018-01-18T20:51:08.399Z,100.00
2018-01-18T20:53:35.931Z,100.00
2018-01-18T20:56:03.597Z,100.00
2018-01-18T20:58:31.153Z,100.00
2018-01-18T21:00:58.857Z,100.00
2018-01-18T21:03:26.436Z,100.00
2018-01-18T21:05:53.988Z,100.00
2018-01-18T21:08:21.600Z,100.00
2018-01-18T21:10:49.146Z,100.00
2018-01-18T21:13:16.813Z,100.00
2018-01-18T21:15:44.389Z,100.00
2018-01-18T21:18:12.005Z,100.00
2018-01-18T21:20:39.557Z,100.00
2018-01-18T21:23:07.132Z,100.00
2018-01-18T21:25:34.730Z,100.00
2018-01-18T21:28:02.343Z,100.00
2018-01-18T21:30:29.901Z,100.00
2018-01-18T21:32:57.542Z,100.00
2018-01-18T21:35:25.088Z,100.00
2018-01-18T21:37:52.638Z,100.00
2018-01-18T21:40:20.326Z,100.00
2018-01-18T21:42:47.857Z,100.00
2018-01-18T21:45:15.386Z,100.00
2018-01-18T21:47:42.997Z,100.00
2018-01-18T21:50:10.549Z,100.00
2018-01-18T21:52:38.104Z,100.00
2018-01-18T21:55:05.676Z,100.00
2018-01-18T21:57:33.192Z,100.00
2018-01-18T22:00:00.736Z,100.00
2018-01-18T22:02:28.354Z,100.00
2018-01-18T22:04:55.905Z,100.00
2018-01-18T22:07:23.438Z,100.00
2018-01-18T22:09:51.049Z,100.00
2018-01-18T22:12:18.592Z,100.00
2018-01-18T22:14:46.110Z,100.00
2018-01-18T22:17:13.656Z,100.00
2018-01-18T22:19:41.292Z,100.00
2018-01-18T22:22:08.857Z,100.00
2018-01-18T22:24:36.409Z,100.00
2018-01-18T22:27:03.957Z,100.00
2018-01-18T22:29:31.534Z,100.00
2018-01-18T22:31:59.052Z,100.00
2018-01-18T22:34:26.736Z,100.00
2018-01-18T22:36:54.456Z,100.00
2018-01-18T22:39:22.161Z,100.00
2018-01-18T22:41:49.717Z,100.00
2018-01-18T22:44:17.252Z,100.00
2018-01-18T22:46:44.857Z,100.00
2018-01-18T22:49:12.375Z,100.00
2018-01-18T22:51:39.962Z,100.00
2018-01-18T22:54:07.568Z,100.00
2018-01-18T22:56:35.096Z,100.00
2018-01-18T22:59:02.653Z,100.00
2018-01-18T23:01:30.172Z,100.00
2018-01-18T23:03:57.777Z,100.00
2018-01-18T23:06:25.349Z,100.00
2018-01-18T23:08:52.892Z,100.00
2018-01-18T23:11:20.472Z,100.00
2018-01-18T23:13:48.029Z,100.00
2018-01-18T23:16:15.600Z,100.00
2018-01-18T23:18:43.182Z,100.00
2018-01-18T23:21:10.746Z,100.00
2018-01-18T23:23:38.357Z,100.00
2018-01-18T23:26:05.889Z,100.00
2018-01-18T23:28:33.446Z,100.00
2018-01-18T23:31:01.030Z,100.00
2018-01-18T23:33:28.685Z,100.00
2018-01-18T23:35:56.289Z,100.00
2018-01-18T23:38:23.872Z,100.00
2018-01-18T23:40:51.460Z,100.00
2018-01-18T23:43:19.068Z,100.00
2018-01-18T23:45:46.620Z,100.00
2018-01-18T23:48:14.174Z,100.00
2018-01-18T23:50:41.759Z,100.00
2018-01-18T23:53:09.381Z,100.00
2018-01-18T23:55:36.970Z,100.00
2018-01-18T23:58:04.579Z,100.00
